Time;durP1;ratioP1;P1;durP2;ratioP2;P2;SDS_P1;SDS_P2;PMS_P1;PMS_P2;Temp;Humidity;BMP_temperature;BMP_pressure;BME280_temperature;BME280_humidity;BME280_pressure;Samples;Min_cycle;Max_cycle;Signal;HPM_P1;HPM_P2
2023/05/29 00:02:14;;;;;;;17.05;3.55;;;10.50;80.10;;;;;;5038249;28;20091;-79
2023/05/29 00:04:40;;;;;;;14.25;3.67;;;10.50;80.20;;;;;;5038023;28;20045;-79
2023/05/29 00:07:06;;;;;;;12.15;3.90;;;10.50;80.20;;;;;;5021789;28;20049;-79
2023/05/29 00:09:31;;;;;;;16.45;3.55;;;10.50;80.40;;;;;;5021819;28;20547;-80
2023/05/29 00:11:57;;;;;;;11.25;3.58;;;10.50;80.40;;;;;;5037865;28;20508;-81
2023/05/29 00:14:23;;;;;;;13.50;3.83;;;10.40;80.40;;;;;;5021426;28;20087;-81
2023/05/29 00:16:50;;;;;;;16.23;3.80;;;10.40;80.50;;;;;;5037854;28;20037;-78
2023/05/29 00:19:16;;;;;;;13.60;3.08;;;10.40;80.70;;;;;;5037875;28;20041;-79
2023/05/29 00:21:43;;;;;;;13.90;3.50;;;10.40;80.70;;;;;;5037665;28;20037;-81
2023/05/29 00:24:08;;;;;;;16.77;3.47;;;10.40;80.70;;;;;;5037702;28;20051;-80
2023/05/29 00:26:34;;;;;;;12.77;3.67;;;10.40;80.60;;;;;;5037648;28;20117;-79
2023/05/29 00:29:00;;;;;;;13.27;3.47;;;10.40;80.60;;;;;;5037689;28;20473;-80
2023/05/29 00:31:26;;;;;;;14.63;3.20;;;10.40;80.70;;;;;;5021341;28;20045;-81
2023/05/29 00:33:51;;;;;;;17.70;4.05;;;10.40;80.60;;;;;;5020651;28;20374;-79
2023/05/29 00:36:18;;;;;;;17.00;3.55;;;10.30;80.60;;;;;;5037556;28;20033;-79
2023/05/29 00:38:44;;;;;;;10.73;3.05;;;10.30;80.60;;;;;;5037780;28;20150;-81
2023/05/29 00:41:15;;;;;;;14.57;4.43;;;10.30;80.60;;;;;;5037588;28;20485;-80
2023/05/29 00:43:41;;;;;;;19.15;3.47;;;10.20;80.80;;;;;;5037443;28;20045;-80
2023/05/29 00:46:07;;;;;;;14.23;3.28;;;10.20;80.70;;;;;;5037733;28;20048;-81
2023/05/29 00:48:33;;;;;;;13.63;2.95;;;10.10;80.90;;;;;;5020694;28;20072;-79
2023/05/29 00:50:59;;;;;;;17.05;3.67;;;10.10;80.80;;;;;;5053759;28;20072;-81
2023/05/29 00:53:26;;;;;;;14.00;3.08;;;10.10;81.00;;;;;;5037446;28;20370;-79
2023/05/29 00:55:52;;;;;;;17.95;3.17;;;10.10;80.80;;;;;;5037011;28;20041;-80
2023/05/29 00:58:18;;;;;;;12.10;2.92;;;10.10;80.90;;;;;;5020533;28;20485;-81
2023/05/29 01:00:44;;;;;;;13.82;3.45;;;10.00;80.90;;;;;;5020222;28;20386;-80
2023/05/29 01:03:14;;;;;;;14.52;3.80;;;10.00;81.00;;;;;;5053643;28;20055;-81
2023/05/29 01:05:41;;;;;;;14.07;4.55;;;10.00;81.00;;;;;;5037700;28;20055;-80
2023/05/29 01:08:07;;;;;;;9.85;2.65;;;10.00;81.10;;;;;;5020496;28;20076;-79
2023/05/29 01:10:34;;;;;;;10.52;2.60;;;10.00;81.20;;;;;;5020544;28;20124;-79
2023/05/29 01:13:17;;;;;;;13.07;3.40;;;10.00;81.20;;;;;;5020611;28;20053;-80
2023/05/29 01:16:00;;;;;;;11.80;4.78;;;10.00;81.30;;;;;;5036729;28;20045;-80
2023/05/29 01:18:47;;;;;;;14.57;3.85;;;10.00;81.10;;;;;;5036568;28;20052;-79
2023/05/29 01:21:25;;;;;;;12.82;3.08;;;10.00;81.00;;;;;;5036748;28;20041;-79
2023/05/29 01:23:57;;;;;;;13.00;2.95;;;10.00;81.00;;;;;;5036849;28;20043;-79
2023/05/29 01:26:42;;;;;;;16.40;4.25;;;9.90;81.10;;;;;;5036538;28;20041;-81
2023/05/29 01:29:10;;;;;;;20.77;4.03;;;10.00;81.10;;;;;;5036625;28;20066;-79
2023/05/29 01:31:39;;;;;;;20.45;3.60;;;10.00;81.00;;;;;;5036689;28;20522;-79
2023/05/29 01:34:05;;;;;;;18.25;4.55;;;10.00;81.00;;;;;;5020445;28;20742;-80
2023/05/29 01:36:32;;;;;;;15.05;3.63;;;10.00;81.00;;;;;;5036382;28;20124;-79
2023/05/29 01:38:59;;;;;;;19.05;3.85;;;10.00;80.90;;;;;;5020144;28;20102;-80
2023/05/29 01:41:26;;;;;;;12.52;3.47;;;10.00;80.90;;;;;;5035814;28;20051;-80
2023/05/29 01:43:52;;;;;;;14.73;3.78;;;10.10;81.00;;;;;;5036499;28;20388;-80
2023/05/29 01:46:20;;;;;;;13.57;3.78;;;10.00;80.90;;;;;;5019886;28;20044;-80
2023/05/29 01:48:46;;;;;;;13.95;4.00;;;10.00;80.80;;;;;;5036456;28;20045;-80
2023/05/29 01:51:12;;;;;;;11.30;3.10;;;10.00;80.90;;;;;;5036049;28;20041;-80
2023/05/29 01:53:39;;;;;;;16.48;4.25;;;10.00;80.90;;;;;;5036298;28;20041;-80
2023/05/29 01:56:09;;;;;;;15.10;3.45;;;9.90;80.90;;;;;;5019673;28;20041;-79
2023/05/29 01:58:36;;;;;;;13.07;3.92;;;9.90;80.90;;;;;;5036150;28;20052;-79
2023/05/29 02:01:03;;;;;;;20.25;4.93;;;9.90;80.80;;;;;;5035806;28;20087;-79
2023/05/29 02:03:29;;;;;;;15.23;3.47;;;9.80;81.00;;;;;;5019738;28;20047;-80
2023/05/29 02:05:59;;;;;;;14.00;3.50;;;9.80;81.00;;;;;;5036133;28;20037;-80
2023/05/29 02:08:26;;;;;;;15.23;3.90;;;9.80;81.10;;;;;;5019604;28;20037;-79
2023/05/29 02:10:52;;;;;;;13.82;3.50;;;9.80;81.00;;;;;;5019240;28;20048;-80
2023/05/29 02:13:17;;;;;;;16.70;4.00;;;9.90;81.00;;;;;;5019444;28;20037;-79
2023/05/29 02:15:43;;;;;;;10.52;3.92;;;10.00;80.90;;;;;;5035756;28;20131;-81
2023/05/29 02:18:14;;;;;;;15.55;3.55;;;10.00;80.90;;;;;;5035556;28;20037;-81
2023/05/29 02:20:41;;;;;;;13.20;3.08;;;10.10;80.80;;;;;;5019101;28;20049;-81
2023/05/29 02:23:09;;;;;;;12.88;3.95;;;10.10;80.80;;;;;;5036272;28;20037;-79
2023/05/29 02:25:35;;;;;;;15.02;3.63;;;10.10;80.70;;;;;;5035585;28;20037;-80
2023/05/29 02:28:01;;;;;;;13.60;3.65;;;10.20;80.60;;;;;;5035534;28;20040;-81
2023/05/29 02:30:28;;;;;;;13.05;3.70;;;10.20;80.60;;;;;;5019331;28;20037;-81
2023/05/29 02:32:54;;;;;;;14.90;3.33;;;10.30;80.60;;;;;;5036133;28;20068;-79
2023/05/29 02:35:22;;;;;;;14.23;3.17;;;10.30;80.50;;;;;;5035419;28;20146;-80
2023/05/29 02:37:48;;;;;;;17.50;3.00;;;10.30;80.40;;;;;;5019544;28;20048;-79
2023/05/29 02:40:14;;;;;;;11.60;2.58;;;10.30;80.40;;;;;;5035618;28;20505;-80
2023/05/29 02:42:40;;;;;;;17.70;3.33;;;10.40;80.40;;;;;;5035313;28;20091;-80
2023/05/29 02:45:06;;;;;;;16.80;3.97;;;10.40;80.00;;;;;;5019472;28;20067;-79
2023/05/29 02:47:32;;;;;;;17.60;4.97;;;10.50;79.60;;;;;;5035376;28;20041;-79
2023/05/29 02:49:57;;;;;;;12.85;3.45;;;10.40;79.50;;;;;;5035358;28;20051;-80
2023/05/29 02:52:23;;;;;;;14.60;3.88;;;10.50;79.50;;;;;;5036397;28;20077;-79
2023/05/29 02:54:49;;;;;;;11.35;4.00;;;10.40;79.60;;;;;;5039440;28;20045;-80
2023/05/29 02:57:15;;;;;;;16.50;3.60;;;10.40;79.60;;;;;;5039589;28;20055;-79
2023/05/29 02:59:41;;;;;;;20.92;3.92;;;10.40;79.70;;;;;;5038717;28;20478;-80
2023/05/29 03:02:07;;;;;;;15.93;3.38;;;10.30;79.70;;;;;;5037971;28;20048;-81
2023/05/29 03:04:33;;;;;;;12.85;3.13;;;10.30;79.60;;;;;;5038130;28;20041;-80
2023/05/29 03:06:58;;;;;;;13.85;2.97;;;10.30;79.70;;;;;;5038809;28;20041;-79
2023/05/29 03:09:24;;;;;;;12.40;3.05;;;10.30;79.60;;;;;;5022235;28;20033;-79
2023/05/29 03:11:50;;;;;;;12.43;3.42;;;10.30;79.60;;;;;;5036286;28;20025;-79
2023/05/29 03:14:16;;;;;;;13.90;3.15;;;10.30;79.70;;;;;;5047816;28;20051;-79
2023/05/29 03:16:43;;;;;;;13.07;3.00;;;10.30;79.70;;;;;;5064184;28;20029;-79
2023/05/29 03:19:09;;;;;;;16.67;3.92;;;10.30;79.60;;;;;;5047459;28;20021;-80
2023/05/29 03:21:35;;;;;;;13.48;2.95;;;10.30;79.70;;;;;;5045570;28;20096;-80
2023/05/29 03:24:02;;;;;;;22.08;4.22;;;10.40;79.70;;;;;;5058976;28;20084;-80
2023/05/29 03:26:28;;;;;;;12.82;3.10;;;10.40;79.60;;;;;;5042821;28;20097;-79
2023/05/29 03:28:54;;;;;;;12.15;3.67;;;10.40;79.60;;;;;;5058236;28;20076;-81
2023/05/29 03:31:20;;;;;;;9.73;2.85;;;10.50;79.50;;;;;;5026175;28;20435;-79
2023/05/29 03:33:47;;;;;;;11.13;2.90;;;10.50;79.40;;;;;;5020592;28;20037;-80
2023/05/29 03:36:13;;;;;;;12.35;2.55;;;10.50;79.40;;;;;;5037272;28;20385;-79
2023/05/29 03:38:39;;;;;;;13.52;3.30;;;10.60;79.20;;;;;;5037081;28;20037;-79
2023/05/29 03:41:05;;;;;;;9.25;2.65;;;10.60;79.20;;;;;;5037523;28;20051;-79
2023/05/29 03:43:31;;;;;;;11.43;2.65;;;10.60;79.30;;;;;;5037855;28;20033;-79
2023/05/29 03:45:56;;;;;;;16.23;3.58;;;10.70;78.90;;;;;;5037527;28;20037;-80
2023/05/29 03:48:22;;;;;;;12.77;3.03;;;10.70;78.60;;;;;;5020828;28;20040;-81
2023/05/29 03:50:49;;;;;;;13.48;2.85;;;10.70;78.60;;;;;;5037410;28;20434;-80
2023/05/29 03:53:14;;;;;;;15.43;3.45;;;10.70;78.60;;;;;;5037173;28;20501;-81
2023/05/29 03:55:40;;;;;;;12.80;4.28;;;10.70;78.70;;;;;;5037074;28;20064;-80
2023/05/29 03:58:06;;;;;;;13.23;2.83;;;10.80;78.70;;;;;;5037011;28;20049;-81
2023/05/29 04:00:32;;;;;;;14.48;4.07;;;10.80;78.80;;;;;;4957571;28;1267021;-79
2023/05/29 04:02:57;;;;;;;24.30;3.97;;;10.80;78.90;;;;;;5034481;28;20042;-79
2023/05/29 04:05:23;;;;;;;15.32;3.80;;;10.90;78.90;;;;;;5035132;28;20074;-79
2023/05/29 04:07:49;;;;;;;14.68;3.55;;;10.90;78.80;;;;;;5018384;28;20402;-81
2023/05/29 04:10:15;;;;;;;8.15;2.78;;;10.80;78.60;;;;;;5018105;28;20132;-80
2023/05/29 04:12:41;;;;;;;10.10;2.97;;;10.90;78.50;;;;;;5034985;28;20056;-79
2023/05/29 04:15:07;;;;;;;12.18;3.17;;;11.00;78.30;;;;;;5017734;28;20046;-81
2023/05/29 04:17:33;;;;;;;16.02;2.95;;;11.00;78.10;;;;;;5034233;28;20048;-80
2023/05/29 04:19:59;;;;;;;13.75;3.63;;;11.00;78.10;;;;;;5017923;28;20037;-79
2023/05/29 04:22:25;;;;;;;12.55;3.45;;;11.00;78.00;;;;;;5034888;28;20041;-80
2023/05/29 04:24:50;;;;;;;15.40;3.83;;;11.00;78.00;;;;;;5018138;28;20394;-79
2023/05/29 04:27:17;;;;;;;14.32;3.33;;;11.00;77.90;;;;;;5034753;28;20037;-81
2023/05/29 04:29:43;;;;;;;11.43;2.63;;;11.00;77.90;;;;;;5034341;28;20047;-79
2023/05/29 04:32:11;;;;;;;15.25;3.40;;;11.00;77.40;;;;;;5034271;28;20042;-80
2023/05/29 04:34:38;;;;;;;14.98;3.00;;;11.00;77.30;;;;;;5017768;28;20041;-79
2023/05/29 04:37:05;;;;;;;7.90;2.63;;;11.00;77.20;;;;;;5034475;28;20398;-80
2023/05/29 04:39:32;;;;;;;12.73;2.55;;;11.10;77.00;;;;;;5034458;28;20037;-80
2023/05/29 04:42:01;;;;;;;14.25;3.20;;;11.10;76.40;;;;;;5017760;28;20478;-80
2023/05/29 04:44:28;;;;;;;11.07;3.08;;;11.10;76.30;;;;;;5034800;28;20428;-79
2023/05/29 04:46:56;;;;;;;11.77;2.60;;;11.20;76.30;;;;;;5033991;28;20111;-80
2023/05/29 04:49:22;;;;;;;15.45;3.40;;;11.30;76.00;;;;;;5033999;28;20049;-79
2023/05/29 04:51:48;;;;;;;10.48;2.85;;;11.30;75.90;;;;;;5018053;28;20049;-80
2023/05/29 04:54:13;;;;;;;10.93;2.33;;;11.30;75.80;;;;;;5033835;28;20530;-81
2023/05/29 04:56:40;;;;;;;17.45;3.00;;;11.30;75.50;;;;;;5034135;28;20036;-81
2023/05/29 04:59:09;;;;;;;14.82;3.75;;;11.30;75.30;;;;;;5018049;28;20437;-80
2023/05/29 05:01:34;;;;;;;17.45;3.58;;;11.30;75.20;;;;;;5033681;28;20056;-80
2023/05/29 05:04:00;;;;;;;14.75;2.70;;;11.30;75.30;;;;;;5017366;28;20116;-83
2023/05/29 05:06:26;;;;;;;9.45;2.70;;;11.20;75.40;;;;;;5034072;28;20053;-79
2023/05/29 05:08:53;;;;;;;12.15;2.83;;;11.30;75.40;;;;;;5017160;28;20038;-82
2023/05/29 05:11:20;;;;;;;12.45;3.05;;;11.30;75.30;;;;;;5033999;28;20041;-80
2023/05/29 05:13:46;;;;;;;11.45;2.40;;;11.20;75.20;;;;;;5033456;28;20052;-81
2023/05/29 05:16:11;;;;;;;13.75;2.75;;;11.30;75.30;;;;;;5032733;28;20128;-78
2023/05/29 05:18:37;;;;;;;13.35;2.60;;;11.30;75.60;;;;;;5033481;28;20128;-80
2023/05/29 05:21:03;;;;;;;10.82;3.40;;;11.40;75.20;;;;;;5033286;28;20416;-79
2023/05/29 05:23:30;;;;;;;10.55;2.60;;;11.40;74.80;;;;;;5033371;28;20151;-80
2023/05/29 05:25:55;;;;;;;14.98;2.88;;;11.40;75.00;;;;;;5033281;28;20132;-81
2023/05/29 05:28:21;;;;;;;12.57;3.58;;;11.40;74.90;;;;;;5033214;28;20124;-79
2023/05/29 05:30:47;;;;;;;11.18;2.63;;;11.50;75.00;;;;;;5016666;28;20046;-80
2023/05/29 05:33:13;;;;;;;13.15;3.42;;;11.50;75.00;;;;;;5033396;28;20397;-81
2023/05/29 05:35:38;;;;;;;8.38;2.75;;;11.50;75.00;;;;;;5016605;28;20485;-80
2023/05/29 05:38:04;;;;;;;19.15;3.63;;;11.40;74.50;;;;;;5049941;28;20623;-79
2023/05/29 05:40:30;;;;;;;15.30;3.03;;;11.50;74.50;;;;;;5033198;28;20834;-82
2023/05/29 05:42:55;;;;;;;11.32;3.50;;;11.50;74.30;;;;;;5033035;28;20124;-81
2023/05/29 05:45:21;;;;;;;10.63;3.78;;;11.50;74.40;;;;;;5049590;28;20406;-79
2023/05/29 05:47:47;;;;;;;10.55;2.53;;;11.50;74.20;;;;;;5013366;28;20038;-79
2023/05/29 05:50:13;;;;;;;15.20;2.97;;;11.50;74.00;;;;;;5013072;28;20045;-80
2023/05/29 05:52:39;;;;;;;15.15;3.83;;;11.50;73.80;;;;;;5014163;28;20042;-81
2023/05/29 05:55:05;;;;;;;14.98;3.45;;;11.60;74.00;;;;;;5013181;28;20088;-79
2023/05/29 05:57:32;;;;;;;11.38;3.65;;;11.60;74.10;;;;;;5013112;28;20398;-78
2023/05/29 06:00:12;;;;;;;13.00;2.88;;;11.70;74.30;;;;;;4996553;28;20053;-79
2023/05/29 06:02:42;;;;;;;12.95;3.58;;;11.80;73.30;;;;;;4996695;28;20041;-80
2023/05/29 06:05:09;;;;;;;8.10;2.97;;;11.90;73.30;;;;;;4996861;28;20108;-80
2023/05/29 06:07:35;;;;;;;17.02;3.80;;;11.80;73.50;;;;;;4980813;28;20445;-82
2023/05/29 06:10:01;;;;;;;12.88;3.35;;;11.80;73.50;;;;;;4980437;28;20509;-82
2023/05/29 06:12:27;;;;;;;18.13;4.28;;;11.90;73.40;;;;;;4996548;28;20041;-80
2023/05/29 06:14:53;;;;;;;13.18;2.95;;;12.00;73.50;;;;;;5015686;28;20041;-80
2023/05/29 06:17:18;;;;;;;17.25;4.10;;;12.00;73.60;;;;;;5049106;28;20048;-82
2023/05/29 06:19:44;;;;;;;15.50;4.05;;;12.00;73.40;;;;;;5015844;28;20033;-82
2023/05/29 06:22:10;;;;;;;9.93;3.15;;;12.00;72.90;;;;;;5048884;28;20033;-80
2023/05/29 06:24:35;;;;;;;18.27;3.83;;;12.10;73.00;;;;;;5032125;28;20095;-81
2023/05/29 06:27:01;;;;;;;15.10;4.38;;;12.20;73.10;;;;;;5015995;28;20049;-81
2023/05/29 06:29:27;;;;;;;15.95;3.50;;;12.10;72.80;;;;;;5015784;28;20502;-78
2023/05/29 06:31:52;;;;;;;13.13;3.67;;;12.30;72.60;;;;;;5015899;28;20045;-81
2023/05/29 06:34:18;;;;;;;15.80;3.78;;;12.30;72.40;;;;;;5015734;28;20046;-81
2023/05/29 06:36:44;;;;;;;17.58;4.15;;;12.40;71.60;;;;;;5016002;28;20033;-79
2023/05/29 06:39:10;;;;;;;16.92;3.30;;;12.40;71.70;;;;;;5032176;28;20038;-82
2023/05/29 06:41:36;;;;;;;19.48;4.20;;;12.50;71.80;;;;;;5015859;28;20052;-81
2023/05/29 06:44:01;;;;;;;16.20;4.28;;;12.50;71.20;;;;;;5032404;28;20041;-80
2023/05/29 06:46:27;;;;;;;13.68;3.75;;;12.50;71.40;;;;;;5032105;28;20038;-80
2023/05/29 06:48:53;;;;;;;16.50;3.38;;;12.50;71.20;;;;;;5015710;28;20055;-82
2023/05/29 06:51:18;;;;;;;14.98;3.58;;;12.60;71.40;;;;;;5015504;28;20141;-82
2023/05/29 06:53:44;;;;;;;9.50;2.92;;;12.60;70.50;;;;;;5032072;28;20095;-82
2023/05/29 06:56:10;;;;;;;15.32;3.80;;;12.60;70.40;;;;;;5031918;28;20456;-80
2023/05/29 06:58:38;;;;;;;12.75;3.58;;;12.60;70.70;;;;;;5015561;28;20042;-82
2023/05/29 07:01:03;;;;;;;14.70;4.38;;;12.70;70.40;;;;;;5015271;28;20045;-79
2023/05/29 07:03:29;;;;;;;13.13;4.45;;;12.70;70.20;;;;;;5031988;28;20048;-81
2023/05/29 07:05:55;;;;;;;16.70;4.25;;;12.80;70.60;;;;;;5032179;28;20038;-79
2023/05/29 07:08:21;;;;;;;14.45;3.83;;;12.90;69.70;;;;;;5015581;28;20497;-80
2023/05/29 07:10:48;;;;;;;17.10;4.55;;;13.00;70.40;;;;;;5015255;28;20038;-80
2023/05/29 07:13:17;;;;;;;18.92;5.07;;;13.00;70.20;;;;;;5027951;28;20046;-83
2023/05/29 07:15:44;;;;;;;11.60;3.75;;;13.10;70.30;;;;;;5011618;28;20041;-79
2023/05/29 07:18:10;;;;;;;12.25;3.95;;;13.20;69.60;;;;;;4995847;28;20513;-81
2023/05/29 07:20:36;;;;;;;17.52;3.63;;;13.30;69.10;;;;;;5011952;28;20042;-79
2023/05/29 07:23:03;;;;;;;12.18;3.70;;;13.20;67.50;;;;;;5012325;28;20041;-81
2023/05/29 07:25:29;;;;;;;17.83;4.18;;;13.20;68.40;;;;;;4996198;28;20046;-80
2023/05/29 07:27:55;;;;;;;20.20;4.38;;;13.20;67.60;;;;;;5011967;28;20510;-81
2023/05/29 07:30:21;;;;;;;14.07;5.10;;;13.10;68.00;;;;;;5012418;28;20052;-80
2023/05/29 07:32:47;;;;;;;13.57;3.45;;;13.00;68.00;;;;;;5012022;28;20441;-81
2023/05/29 07:35:12;;;;;;;19.45;5.28;;;13.00;68.50;;;;;;5011870;28;20088;-82
2023/05/29 07:37:38;;;;;;;17.67;4.88;;;13.00;68.60;;;;;;4979833;28;20104;-79
2023/05/29 07:40:07;;;;;;;15.15;5.03;;;13.00;68.40;;;;;;5015262;28;20557;-79
2023/05/29 07:42:34;;;;;;;20.45;4.82;;;13.10;68.60;;;;;;5015569;28;20038;-81
2023/05/29 07:44:59;;;;;;;14.13;4.13;;;13.00;69.10;;;;;;5032374;28;20037;-81
2023/05/29 07:47:25;;;;;;;16.73;3.97;;;13.10;69.40;;;;;;4999089;28;20103;-80
2023/05/29 07:49:51;;;;;;;17.42;4.85;;;13.20;69.50;;;;;;5015120;28;20169;-80
2023/05/29 07:52:18;;;;;;;20.92;4.88;;;13.30;69.10;;;;;;5015551;28;20077;-80
2023/05/29 07:54:43;;;;;;;15.15;4.10;;;13.40;68.60;;;;;;5015275;28;20049;-81
2023/05/29 07:57:10;;;;;;;17.60;4.53;;;13.50;68.60;;;;;;4999320;28;20038;-80
2023/05/29 07:59:36;;;;;;;15.50;4.32;;;13.60;69.10;;;;;;5033287;28;20120;-81
2023/05/29 08:02:03;;;;;;;18.13;5.15;;;13.70;68.40;;;;;;5002411;28;20390;-81
2023/05/29 08:04:29;;;;;;;13.68;4.43;;;13.90;68.00;;;;;;4986448;28;20045;-79
2023/05/29 08:06:55;;;;;;;19.17;4.63;;;13.90;66.60;;;;;;5002619;28;20052;-79
2023/05/29 08:09:21;;;;;;;17.42;4.47;;;13.90;66.80;;;;;;5035061;28;20081;-79
2023/05/29 08:11:47;;;;;;;16.90;4.53;;;13.90;67.30;;;;;;5001898;28;20555;-78
2023/05/29 08:14:14;;;;;;;17.92;4.13;;;13.90;67.30;;;;;;5018326;28;20044;-79
2023/05/29 08:16:40;;;;;;;13.40;3.85;;;13.90;67.60;;;;;;5002154;28;20048;-79
2023/05/29 08:19:05;;;;;;;19.13;4.28;;;14.00;66.70;;;;;;5001772;28;20041;-80
2023/05/29 08:21:31;;;;;;;17.10;4.38;;;14.00;67.10;;;;;;5017893;28;20042;-76
2023/05/29 08:23:58;;;;;;;20.08;4.53;;;14.10;67.00;;;;;;5018308;28;20120;-81
2023/05/29 08:26:23;;;;;;;17.33;4.30;;;14.10;67.10;;;;;;5018313;28;20042;-79
2023/05/29 08:28:50;;;;;;;11.30;3.50;;;14.20;65.90;;;;;;5017824;28;20048;-79
2023/05/29 08:31:15;;;;;;;15.00;4.13;;;14.10;65.60;;;;;;5001545;28;20160;-80
2023/05/29 08:33:41;;;;;;;15.82;4.00;;;14.10;66.00;;;;;;5018534;28;20052;-79
2023/05/29 08:36:08;;;;;;;19.33;5.55;;;14.20;66.00;;;;;;5018072;28;20081;-79
2023/05/29 08:38:35;;;;;;;17.70;4.40;;;14.30;65.80;;;;;;5018078;28;20091;-81
2023/05/29 08:41:01;;;;;;;16.33;4.95;;;14.30;65.30;;;;;;5001238;28;20037;-79
2023/05/29 08:43:31;;;;;;;16.55;4.50;;;14.30;66.00;;;;;;5017613;28;20042;-80
2023/05/29 08:46:01;;;;;;;21.88;5.65;;;14.30;65.80;;;;;;5017840;28;20073;-80
2023/05/29 08:48:28;;;;;;;18.13;4.88;;;14.30;65.30;;;;;;5017683;28;20171;-80
2023/05/29 08:50:56;;;;;;;13.77;4.25;;;14.30;66.00;;;;;;5016376;28;20052;-79
2023/05/29 08:53:23;;;;;;;20.30;5.60;;;14.30;66.00;;;;;;5017469;28;20045;-79
2023/05/29 08:55:52;;;;;;;16.67;4.75;;;14.40;65.80;;;;;;5033794;28;20123;-79
2023/05/29 08:58:21;;;;;;;18.85;4.97;;;14.30;65.80;;;;;;5017371;28;20034;-77
2023/05/29 09:00:48;;;;;;;15.77;3.80;;;14.30;65.50;;;;;;5033488;28;20054;-78
2023/05/29 09:03:15;;;;;;;13.50;3.85;;;14.20;66.10;;;;;;5017598;28;20045;-79
2023/05/29 09:05:41;;;;;;;18.27;4.72;;;14.30;65.40;;;;;;5033583;28;20124;-80
2023/05/29 09:08:09;;;;;;;15.88;4.10;;;14.30;65.10;;;;;;5017540;28;20053;-78
2023/05/29 09:10:35;;;;;;;17.67;4.25;;;14.30;65.30;;;;;;5017495;28;20393;-82
2023/05/29 09:13:02;;;;;;;16.88;4.55;;;14.30;66.00;;;;;;5033885;28;20050;-80
2023/05/29 09:15:28;;;;;;;14.15;4.32;;;14.20;66.50;;;;;;5017330;28;20041;-85
2023/05/29 09:17:55;;;;;;;14.75;3.85;;;14.20;67.00;;;;;;5017326;28;20397;-81
2023/05/29 09:20:24;;;;;;;23.50;4.93;;;14.20;66.80;;;;;;5017457;28;20433;-83
2023/05/29 09:23:03;;;;;;;23.65;5.50;;;14.20;65.80;;;;;;5001485;28;20045;-81
2023/05/29 09:25:42;;;;;;;14.65;3.90;;;14.20;64.90;;;;;;5017366;28;20083;-82
2023/05/29 09:28:08;;;;;;;27.77;5.03;;;14.10;65.40;;;;;;5000762;28;20401;-80
2023/05/29 09:30:43;;;;;;;13.60;5.28;;;14.10;66.10;;;;;;5000444;28;20128;-80
2023/05/29 09:33:10;;;;;;;22.08;4.72;;;14.10;66.40;;;;;;5000259;28;20037;-79
2023/05/29 09:35:44;;;;;;;19.75;4.60;;;14.20;66.80;;;;;;5016920;28;20398;-80
2023/05/29 09:38:12;;;;;;;20.80;5.28;;;14.20;66.70;;;;;;5000262;28;20038;-80
2023/05/29 09:40:39;;;;;;;19.80;4.38;;;14.40;65.60;;;;;;5016359;28;20559;-81
2023/05/29 09:43:19;;;;;;;15.25;4.80;;;14.50;65.60;;;;;;5000514;28;20094;-79
2023/05/29 09:45:47;;;;;;;16.83;5.88;;;14.50;65.70;;;;;;5001008;28;20052;-81
2023/05/29 09:48:15;;;;;;;19.02;5.55;;;14.50;66.40;;;;;;5000590;28;20116;-82
2023/05/29 09:50:50;;;;;;;17.55;4.38;;;14.50;65.90;;;;;;5017414;28;20045;-83
2023/05/29 09:53:19;;;;;;;16.15;5.38;;;14.60;65.80;;;;;;5004978;28;20076;-82
2023/05/29 09:55:50;;;;;;;17.52;5.00;;;14.60;65.30;;;;;;5036028;28;20037;-81
2023/05/29 09:58:17;;;;;;;14.20;4.43;;;14.70;65.80;;;;;;5036137;28;20126;-81
2023/05/29 10:00:44;;;;;;;16.70;5.05;;;14.70;65.50;;;;;;5035215;28;20088;-82
2023/05/29 10:03:13;;;;;;;12.93;3.67;;;14.80;65.20;;;;;;5036252;28;20048;-80
2023/05/29 10:05:46;;;;;;;16.27;4.63;;;14.80;65.10;;;;;;5035867;28;20385;-78
2023/05/29 10:08:14;;;;;;;14.38;5.03;;;14.90;63.90;;;;;;5020190;28;20064;-82
2023/05/29 10:10:46;;;;;;;15.07;4.43;;;14.90;64.30;;;;;;5035741;28;20048;-79
2023/05/29 10:13:13;;;;;;;18.35;4.22;;;14.90;64.90;;;;;;5019527;28;20040;-80
2023/05/29 10:15:41;;;;;;;20.30;5.88;;;14.90;65.80;;;;;;5035892;28;20445;-82
2023/05/29 10:18:20;;;;;;;17.67;5.10;;;15.00;65.10;;;;;;5036099;28;20036;-80
2023/05/29 10:20:52;;;;;;;12.60;3.22;;;15.00;64.60;;;;;;5035439;28;20045;-82
2023/05/29 10:23:23;;;;;;;18.02;3.95;;;15.10;64.70;;;;;;5035877;28;20048;-81
2023/05/29 10:25:53;;;;;;;18.30;3.85;;;15.20;64.20;;;;;;5019486;28;20048;-81
2023/05/29 10:28:23;;;;;;;10.55;4.00;;;15.30;63.00;;;;;;5036127;28;20051;-82
2023/05/29 10:31:04;;;;;;;12.02;3.70;;;15.40;63.50;;;;;;5021347;28;20044;-82
2023/05/29 10:33:45;;;;;;;15.80;5.10;;;15.50;63.10;;;;;;5040782;28;20033;-82
2023/05/29 10:36:18;;;;;;;19.00;3.97;;;15.60;63.80;;;;;;5035440;28;20052;-82
2023/05/29 10:38:48;;;;;;;14.77;3.65;;;15.80;63.60;;;;;;5035870;28;20056;-81
2023/05/29 10:41:26;;;;;;;17.98;4.47;;;15.90;63.00;;;;;;5014696;28;20124;-82
2023/05/29 10:44:31;;;;;;;12.80;3.50;;;16.00;61.30;;;;;;4999164;28;20128;-81
2023/05/29 10:47:00;;;;;;;13.50;3.60;;;16.00;62.10;;;;;;5015431;28;20120;-81
2023/05/29 10:49:26;;;;;;;21.00;4.45;;;16.00;62.70;;;;;;5015763;28;20037;-83
2023/05/29 10:51:52;;;;;;;15.88;4.30;;;16.10;60.90;;;;;;5015540;28;20041;-81
2023/05/29 10:54:23;;;;;;;13.18;3.78;;;16.20;61.90;;;;;;5015584;28;20044;-82
2023/05/29 10:56:57;;;;;;;13.55;3.17;;;16.30;60.20;;;;;;4999574;28;20033;-80
2023/05/29 10:59:27;;;;;;;13.98;4.10;;;16.40;60.50;;;;;;4999383;28;20120;-81
2023/05/29 11:01:53;;;;;;;17.23;3.50;;;16.50;60.00;;;;;;4983469;28;20077;-81
2023/05/29 11:04:25;;;;;;;13.57;4.22;;;16.60;59.00;;;;;;4999580;28;20045;-82
2023/05/29 11:06:52;;;;;;;11.10;3.45;;;16.70;58.90;;;;;;5015696;28;20377;-81
2023/05/29 11:09:28;;;;;;;15.13;3.92;;;16.70;59.30;;;;;;4983013;28;20124;-81
2023/05/29 11:12:25;;;;;;;13.52;3.97;;;16.70;58.80;;;;;;4999040;28;20514;-81
2023/05/29 11:15:06;;;;;;;13.05;3.75;;;16.70;59.00;;;;;;5002522;28;20108;-81
2023/05/29 11:17:39;;;;;;;17.33;4.20;;;16.60;59.60;;;;;;5002920;28;20043;-81
2023/05/29 11:20:16;;;;;;;16.15;4.20;;;16.60;60.00;;;;;;5019112;28;20041;-80
2023/05/29 11:23:02;;;;;;;18.13;4.30;;;16.60;60.10;;;;;;5019178;28;20038;-82
2023/05/29 11:25:29;;;;;;;13.75;3.60;;;16.80;60.50;;;;;;5019506;28;20115;-80
2023/05/29 11:27:55;;;;;;;11.27;3.88;;;16.90;60.70;;;;;;4987021;28;20111;-83
2023/05/29 11:30:21;;;;;;;15.65;3.40;;;16.90;58.90;;;;;;4986475;28;20153;-82
2023/05/29 11:32:52;;;;;;;13.70;4.13;;;16.80;57.20;;;;;;5019280;28;20414;-82
2023/05/29 11:35:21;;;;;;;18.52;4.13;;;16.70;57.90;;;;;;5019022;28;20042;-81
2023/05/29 11:37:48;;;;;;;10.77;3.85;;;16.80;58.40;;;;;;5002447;28;20124;-82
2023/05/29 11:40:15;;;;;;;12.63;3.70;;;16.90;58.40;;;;;;5002670;28;20037;-82
2023/05/29 11:42:45;;;;;;;12.27;3.33;;;17.00;58.50;;;;;;4986467;28;20041;-82
2023/05/29 11:45:15;;;;;;;16.40;4.05;;;17.20;58.30;;;;;;4986313;28;20402;-81
2023/05/29 11:47:55;;;;;;;9.95;3.72;;;17.20;57.00;;;;;;5002566;28;20037;-80
2023/05/29 11:50:26;;;;;;;16.23;4.30;;;17.40;57.80;;;;;;5002229;28;20099;-80
2023/05/29 11:52:52;;;;;;;10.88;2.90;;;17.50;57.70;;;;;;4986311;28;20123;-83
2023/05/29 11:55:22;;;;;;;14.52;3.83;;;17.50;56.50;;;;;;5002143;28;20129;-82
2023/05/29 11:57:56;;;;;;;12.80;4.00;;;17.60;56.20;;;;;;5002339;28;20132;-81
2023/05/29 12:00:22;;;;;;;11.90;3.72;;;17.70;54.80;;;;;;5001782;28;20057;-82
2023/05/29 12:02:48;;;;;;;14.43;5.28;;;17.70;55.60;;;;;;5002236;28;20045;-82
2023/05/29 12:05:16;;;;;;;14.23;3.88;;;17.90;56.10;;;;;;5018327;28;20041;-83
2023/05/29 12:07:51;;;;;;;14.18;3.35;;;17.90;55.30;;;;;;5018314;28;20044;-82
2023/05/29 12:10:18;;;;;;;10.75;3.88;;;18.00;56.00;;;;;;5001865;28;20041;-82
2023/05/29 12:13:02;;;;;;;12.23;4.10;;;18.00;54.10;;;;;;5001971;28;20080;-81
2023/05/29 12:15:28;;;;;;;11.45;3.35;;;18.10;54.80;;;;;;5002343;28;20041;-82
2023/05/29 12:17:55;;;;;;;11.35;3.88;;;18.20;55.30;;;;;;5001816;28;20040;-83
2023/05/29 12:20:28;;;;;;;13.73;4.25;;;18.30;55.90;;;;;;5018051;28;20121;-82
2023/05/29 12:23:00;;;;;;;15.98;3.83;;;18.30;56.40;;;;;;5002577;28;20060;-82
2023/05/29 12:25:26;;;;;;;9.43;3.03;;;18.40;54.70;;;;;;5001637;28;20071;-82
2023/05/29 12:27:56;;;;;;;10.80;3.42;;;18.50;54.90;;;;;;5001732;28;20524;-82
2023/05/29 12:30:22;;;;;;;12.02;3.00;;;18.60;55.90;;;;;;5001527;28;20038;-82
2023/05/29 12:32:51;;;;;;;12.50;3.00;;;18.50;54.10;;;;;;5017876;28;20041;-80
2023/05/29 12:35:22;;;;;;;14.18;4.28;;;18.60;54.70;;;;;;5017842;28;20044;-81
2023/05/29 12:37:49;;;;;;;10.75;3.92;;;18.60;53.60;;;;;;5017744;28;20029;-83
2023/05/29 12:40:17;;;;;;;11.77;3.28;;;18.50;52.50;;;;;;5017693;28;20046;-81
2023/05/29 12:42:42;;;;;;;10.68;3.40;;;18.50;54.00;;;;;;5001510;28;20029;-81